createdAt,value
2023-03-29T00:01:42.502Z,4.94
2023-03-29T00:04:10.201Z,4.92
2023-03-29T00:06:36.853Z,4.94
2023-03-29T00:09:05.350Z,4.93
2023-03-29T00:11:32.124Z,4.94
2023-03-29T00:13:58.648Z,4.96
2023-03-29T00:16:25.345Z,4.96
2023-03-29T00:18:51.957Z,4.96
2023-03-29T00:21:18.434Z,4.97
2023-03-29T00:23:44.935Z,4.97
2023-03-29T00:26:11.744Z,4.97
2023-03-29T00:28:38.192Z,4.98
2023-03-29T00:31:11.269Z,4.99
2023-03-29T00:33:37.810Z,4.98
2023-03-29T00:36:05.045Z,4.96
2023-03-29T00:38:32.586Z,4.96
2023-03-29T00:40:59.727Z,4.96
2023-03-29T00:43:27.116Z,4.95
2023-03-29T00:45:53.861Z,4.97
2023-03-29T00:48:24.376Z,4.97
2023-03-29T00:50:55.146Z,4.97
2023-03-29T00:53:29.257Z,4.98
2023-03-29T00:56:06.458Z,4.99
2023-03-29T00:59:07.236Z,5.01
2023-03-29T01:01:43.978Z,5.00
2023-03-29T01:04:32.899Z,5.04
2023-03-29T01:07:05.546Z,5.06
2023-03-29T01:09:37.460Z,5.09
2023-03-29T01:12:12.311Z,5.12
2023-03-29T01:14:56.625Z,5.14
2023-03-29T01:17:25.533Z,5.15
2023-03-29T01:20:13.704Z,5.18
2023-03-29T01:23:05.673Z,5.20
2023-03-29T01:25:38.181Z,5.22
2023-03-29T01:28:10.885Z,5.27
2023-03-29T01:30:49.366Z,5.29
2023-03-29T01:33:27.776Z,5.30
2023-03-29T01:36:09.813Z,5.33
2023-03-29T01:38:54.645Z,5.38
2023-03-29T01:41:22.953Z,5.40
2023-03-29T01:44:19.713Z,5.41
2023-03-29T01:46:52.496Z,5.44
2023-03-29T01:49:25.642Z,5.46
2023-03-29T01:51:59.070Z,5.48
2023-03-29T01:54:37.040Z,5.50
2023-03-29T01:57:06.905Z,5.54
2023-03-29T01:59:36.102Z,5.53
2023-03-29T02:02:05.785Z,5.55
2023-03-29T02:04:37.994Z,5.56
2023-03-29T02:07:08.822Z,5.56
2023-03-29T02:09:38.432Z,5.56
2023-03-29T02:12:07.871Z,5.55
2023-03-29T02:14:35.137Z,5.57
2023-03-29T02:17:18.359Z,5.55
2023-03-29T02:19:51.967Z,5.56
2023-03-29T02:22:24.470Z,5.57
2023-03-29T02:24:59.069Z,5.56
2023-03-29T02:27:29.651Z,5.57
2023-03-29T02:29:56.578Z,5.58
2023-03-29T02:32:43.608Z,5.58
2023-03-29T02:35:14.271Z,5.59
2023-03-29T02:37:46.567Z,5.58
2023-03-29T02:40:14.953Z,5.58
2023-03-29T02:42:44.900Z,5.58
2023-03-29T02:45:15.704Z,5.59
2023-03-29T02:47:46.945Z,5.59
2023-03-29T02:50:13.783Z,5.59
2023-03-29T02:52:46.527Z,5.61
2023-03-29T02:55:17.218Z,5.61
2023-03-29T02:57:44.027Z,5.62
2023-03-29T03:00:12.053Z,5.60
2023-03-29T03:02:38.622Z,5.59
2023-03-29T03:05:05.870Z,5.61
2023-03-29T03:07:33.798Z,5.61
2023-03-29T03:10:00.615Z,5.62
2023-03-29T03:12:27.147Z,5.63
2023-03-29T03:14:54.596Z,5.60
2023-03-29T03:17:21.101Z,5.61
2023-03-29T03:19:48.035Z,5.63
2023-03-29T03:22:15.257Z,5.62
2023-03-29T03:24:41.741Z,5.59
2023-03-29T03:27:08.564Z,5.61
2023-03-29T03:29:36.532Z,5.61
2023-03-29T03:32:04.178Z,5.62
2023-03-29T03:34:31.136Z,5.59
2023-03-29T03:36:57.645Z,5.59
2023-03-29T03:39:24.104Z,5.61
2023-03-29T03:41:50.910Z,5.60
2023-03-29T03:44:17.459Z,5.60
2023-03-29T03:46:43.930Z,5.60
2023-03-29T03:49:10.428Z,5.60
2023-03-29T03:51:36.921Z,5.60
2023-03-29T03:54:03.522Z,5.62
2023-03-29T03:56:30.063Z,5.61
2023-03-29T03:58:57.107Z,5.60
2023-03-29T04:01:24.547Z,5.60
2023-03-29T04:03:51.145Z,5.61
2023-03-29T04:06:17.839Z,5.63
2023-03-29T04:08:44.291Z,5.64
2023-03-29T04:11:10.778Z,5.65
2023-03-29T04:13:37.267Z,5.66
2023-03-29T04:16:03.984Z,5.65
2023-03-29T04:18:30.720Z,5.65
2023-03-29T04:20:57.230Z,5.64
2023-03-29T04:23:23.687Z,5.65
2023-03-29T04:25:53.787Z,5.65
2023-03-29T04:28:20.354Z,5.65
2023-03-29T04:30:48.184Z,5.65
2023-03-29T04:33:15.366Z,5.66
2023-03-29T04:35:42.471Z,5.67
2023-03-29T04:38:10.233Z,5.66
2023-03-29T04:40:37.314Z,5.67
2023-03-29T04:43:04.301Z,5.66
2023-03-29T04:45:31.479Z,5.67
2023-03-29T04:48:01.922Z,5.67
2023-03-29T04:50:28.465Z,5.69
2023-03-29T04:52:54.931Z,5.71
2023-03-29T04:55:21.512Z,5.69
2023-03-29T04:57:47.971Z,5.69
2023-03-29T05:00:15.328Z,5.69
2023-03-29T05:02:44.230Z,5.71
2023-03-29T05:05:11.978Z,5.70
2023-03-29T05:07:38.946Z,5.73
2023-03-29T05:10:06.680Z,5.73
2023-03-29T05:12:33.164Z,5.72
2023-03-29T05:14:59.681Z,5.74
2023-03-29T05:17:27.507Z,5.73
2023-03-29T05:19:54.371Z,5.73
2023-03-29T05:22:21.808Z,5.75
2023-03-29T05:24:48.473Z,5.77
2023-03-29T05:27:15.143Z,5.76
2023-03-29T05:29:45.364Z,5.79
2023-03-29T05:32:12.004Z,5.79
2023-03-29T05:34:39.188Z,5.81
2023-03-29T05:37:05.707Z,5.82
2023-03-29T05:39:34.588Z,5.83
2023-03-29T05:42:04.337Z,5.84
2023-03-29T05:44:30.932Z,5.86
2023-03-29T05:46:57.971Z,5.87
2023-03-29T05:49:24.456Z,5.90
2023-03-29T05:51:51.925Z,5.89
2023-03-29T05:54:18.367Z,5.92
2023-03-29T05:56:44.769Z,5.93
2023-03-29T05:59:11.362Z,5.95
2023-03-29T06:01:38.135Z,5.98
2023-03-29T06:04:06.382Z,6.00
2023-03-29T06:06:33.811Z,6.03
2023-03-29T06:09:01.504Z,6.06
2023-03-29T06:11:27.925Z,6.08
2023-03-29T06:13:54.333Z,6.10
2023-03-29T06:16:20.907Z,6.13
2023-03-29T06:18:48.132Z,6.15
2023-03-29T06:21:15.336Z,6.19
2023-03-29T06:23:41.798Z,6.24
2023-03-29T06:26:08.605Z,6.28
2023-03-29T06:28:35.699Z,6.33
2023-03-29T06:31:07.970Z,6.37
2023-03-29T06:33:37.126Z,6.39
2023-03-29T06:36:04.504Z,6.44
2023-03-29T06:38:31.056Z,6.52
2023-03-29T06:41:06.932Z,6.57
2023-03-29T06:43:34.754Z,6.63
2023-03-29T06:46:02.104Z,6.67
2023-03-29T06:48:28.856Z,6.74
2023-03-29T06:50:55.569Z,6.79
2023-03-29T06:53:22.102Z,6.84
2023-03-29T06:55:51.837Z,6.88
2023-03-29T06:58:18.473Z,6.95
2023-03-29T07:00:46.175Z,7.02
2023-03-29T07:03:19.924Z,7.08
2023-03-29T07:05:47.840Z,7.13
2023-03-29T07:08:16.483Z,7.19
2023-03-29T07:10:45.729Z,7.28
2023-03-29T07:13:13.415Z,7.41
2023-03-29T07:15:41.488Z,7.50
2023-03-29T07:18:09.667Z,7.56
2023-03-29T07:20:38.393Z,7.61
2023-03-29T07:23:05.905Z,7.65
2023-03-29T07:25:34.455Z,7.73
2023-03-29T07:28:01.049Z,7.77
2023-03-29T07:30:32.014Z,7.80
2023-03-29T07:32:59.779Z,7.82
2023-03-29T07:35:27.311Z,7.84
2023-03-29T07:37:58.542Z,7.83
2023-03-29T07:40:26.103Z,7.85
2023-03-29T07:42:57.132Z,7.92
2023-03-29T07:45:28.100Z,8.01
2023-03-29T07:48:00.001Z,8.09
2023-03-29T07:50:28.071Z,8.15
2023-03-29T07:52:54.680Z,8.23
2023-03-29T07:55:21.939Z,8.31
2023-03-29T07:57:49.442Z,8.38
2023-03-29T08:00:16.955Z,8.42
2023-03-29T08:02:49.667Z,8.48
2023-03-29T08:05:23.134Z,8.54
2023-03-29T08:07:56.162Z,8.58
2023-03-29T08:10:22.837Z,8.61
2023-03-29T08:12:50.432Z,8.66
2023-03-29T08:15:17.072Z,8.68
2023-03-29T08:17:43.954Z,8.70
2023-03-29T08:20:13.734Z,8.73
2023-03-29T08:22:40.463Z,8.78
2023-03-29T08:25:08.751Z,8.82
2023-03-29T08:27:35.318Z,8.88
2023-03-29T08:30:01.958Z,8.95
2023-03-29T08:32:28.379Z,9.01
2023-03-29T08:34:55.037Z,9.06
2023-03-29T08:37:21.880Z,9.13
2023-03-29T08:39:48.580Z,9.18
2023-03-29T08:42:31.629Z,9.25
2023-03-29T08:45:18.670Z,9.36
2023-03-29T08:47:52.715Z,9.43
2023-03-29T08:50:23.160Z,9.51
2023-03-29T08:52:57.484Z,9.47
2023-03-29T08:55:38.639Z,9.48
2023-03-29T08:58:12.028Z,9.51
2023-03-29T09:00:47.118Z,9.56
2023-03-29T09:03:19.137Z,9.59
2023-03-29T09:05:48.497Z,9.57
2023-03-29T09:08:17.592Z,9.61
2023-03-29T09:10:56.013Z,9.66
2023-03-29T09:13:40.302Z,9.68
2023-03-29T09:16:33.496Z,9.69
2023-03-29T09:19:11.305Z,9.72
2023-03-29T09:21:47.651Z,9.72
2023-03-29T09:24:38.555Z,9.73
2023-03-29T09:27:21.689Z,9.85
2023-03-29T09:30:09.662Z,9.93
2023-03-29T09:33:08.213Z,10.05
2023-03-29T09:35:38.570Z,10.16
2023-03-29T09:38:07.479Z,10.29
2023-03-29T09:40:46.648Z,10.43
2023-03-29T09:43:18.437Z,10.61
2023-03-29T09:45:51.125Z,10.59
2023-03-29T09:48:20.050Z,10.60
2023-03-29T09:50:51.156Z,10.77
2023-03-29T09:53:19.426Z,10.90
2023-03-29T09:55:49.105Z,10.93
2023-03-29T09:58:20.019Z,10.87
2023-03-29T10:00:48.291Z,10.80
2023-03-29T10:03:22.200Z,10.82
2023-03-29T10:05:53.410Z,10.83
2023-03-29T10:08:27.304Z,10.83
2023-03-29T10:10:56.993Z,10.89
2023-03-29T10:13:29.379Z,10.98
2023-03-29T10:16:02.191Z,11.14
2023-03-29T10:18:30.829Z,11.31
2023-03-29T10:21:04.427Z,11.46
2023-03-29T10:23:37.357Z,11.60
2023-03-29T10:26:14.932Z,11.72
2023-03-29T10:28:41.754Z,11.85
2023-03-29T10:31:18.070Z,11.93
2023-03-29T10:33:52.861Z,11.83
2023-03-29T10:36:19.809Z,11.90
2023-03-29T10:38:46.620Z,11.88
2023-03-29T10:41:16.254Z,11.92
2023-03-29T10:43:49.528Z,11.95
2023-03-29T10:46:39.308Z,11.92
2023-03-29T10:49:17.707Z,11.89
2023-03-29T10:51:46.623Z,11.94
2023-03-29T10:54:17.261Z,11.99
2023-03-29T10:56:50.755Z,11.90
2023-03-29T10:59:24.698Z,11.92
2023-03-29T11:02:15.748Z,12.06
2023-03-29T11:04:48.119Z,12.09
2023-03-29T11:07:23.632Z,12.07
2023-03-29T11:09:53.844Z,11.96
2023-03-29T11:12:38.475Z,11.96
2023-03-29T11:15:20.049Z,11.86
2023-03-29T11:18:30.195Z,11.75
2023-03-29T11:21:28.078Z,11.80
2023-03-29T11:24:02.870Z,11.90
2023-03-29T11:26:48.032Z,11.86
2023-03-29T11:29:25.423Z,11.80
2023-03-29T11:32:13.234Z,11.85
2023-03-29T11:34:58.680Z,11.82
2023-03-29T11:37:44.847Z,11.92
2023-03-29T11:40:57.713Z,11.97
2023-03-29T11:43:34.585Z,12.06
2023-03-29T11:46:23.412Z,12.06
2023-03-29T11:49:02.659Z,12.21
2023-03-29T11:51:36.149Z,12.30
2023-03-29T11:54:25.428Z,12.31
2023-03-29T11:57:03.300Z,12.35
2023-03-29T11:59:39.274Z,12.39
2023-03-29T12:02:18.012Z,12.48
2023-03-29T12:04:52.201Z,12.60
2023-03-29T12:07:53.596Z,12.54
2023-03-29T12:10:23.593Z,12.40
2023-03-29T12:13:00.926Z,12.36
2023-03-29T12:15:31.926Z,12.31
2023-03-29T12:18:13.126Z,12.26
2023-03-29T12:20:40.409Z,12.22
2023-03-29T12:23:08.812Z,12.27
2023-03-29T12:25:52.612Z,12.32
2023-03-29T12:28:55.228Z,12.28
2023-03-29T12:31:36.928Z,12.20
2023-03-29T12:34:06.645Z,12.11
2023-03-29T12:36:38.821Z,12.00
2023-03-29T12:39:05.552Z,11.90
2023-03-29T12:41:37.211Z,11.79
2023-03-29T12:44:04.539Z,11.76
2023-03-29T12:46:35.383Z,11.68
2023-03-29T12:49:14.797Z,11.65
2023-03-29T12:51:43.305Z,11.62
2023-03-29T12:54:20.229Z,11.60
2023-03-29T12:56:52.438Z,11.59
2023-03-29T12:59:33.650Z,11.59
2023-03-29T13:02:21.885Z,11.70
2023-03-29T13:04:52.492Z,11.79
2023-03-29T13:07:22.214Z,11.82
2023-03-29T13:09:51.800Z,11.88
2023-03-29T13:12:27.028Z,11.97
2023-03-29T13:14:57.421Z,12.01
2023-03-29T13:17:26.229Z,12.09
2023-03-29T13:20:16.289Z,12.29
2023-03-29T13:23:00.843Z,12.42
2023-03-29T13:25:45.089Z,12.49
2023-03-29T13:28:15.771Z,12.49
2023-03-29T13:31:11.421Z,12.52
2023-03-29T13:33:57.088Z,12.57
2023-03-29T13:36:36.290Z,12.56
2023-03-29T13:39:07.863Z,12.55
2023-03-29T13:41:39.839Z,12.54
2023-03-29T13:44:27.440Z,12.58
2023-03-29T13:47:27.665Z,12.62
2023-03-29T13:49:58.194Z,12.67
2023-03-29T13:52:30.484Z,12.73
2023-03-29T13:55:04.277Z,12.77
2023-03-29T13:57:39.993Z,12.82
2023-03-29T14:00:20.099Z,12.92
2023-03-29T14:03:04.249Z,13.01
2023-03-29T14:05:44.396Z,13.08
2023-03-29T14:08:25.385Z,13.14
2023-03-29T14:10:53.605Z,13.16
2023-03-29T14:13:24.190Z,13.25
2023-03-29T14:15:54.696Z,13.31
2023-03-29T14:18:23.795Z,13.25
2023-03-29T14:20:55.633Z,13.21
2023-03-29T14:23:28.252Z,13.21
2023-03-29T14:25:54.759Z,13.22
2023-03-29T14:28:26.138Z,13.26
2023-03-29T14:30:53.698Z,13.29
2023-03-29T14:33:34.629Z,13.39
2023-03-29T14:36:06.547Z,13.48
2023-03-29T14:38:36.498Z,13.47
2023-03-29T14:41:03.411Z,13.51
2023-03-29T14:43:32.113Z,13.56
2023-03-29T14:46:02.602Z,13.67
2023-03-29T14:48:32.966Z,13.72
2023-03-29T14:51:00.601Z,13.82
2023-03-29T14:53:30.523Z,13.86
2023-03-29T14:55:58.065Z,13.89
2023-03-29T14:58:31.824Z,13.94
2023-03-29T15:01:10.460Z,13.99
2023-03-29T15:03:54.946Z,13.97
2023-03-29T15:06:23.607Z,13.96
2023-03-29T15:09:03.625Z,13.94
2023-03-29T15:11:31.581Z,14.00
2023-03-29T15:14:08.580Z,14.03
2023-03-29T15:16:40.676Z,13.98
2023-03-29T15:19:11.339Z,13.95
2023-03-29T15:21:38.913Z,13.93
2023-03-29T15:24:05.784Z,13.91
2023-03-29T15:26:37.566Z,13.90
2023-03-29T15:29:13.355Z,13.93
2023-03-29T15:31:41.883Z,13.98
2023-03-29T15:34:12.681Z,14.02
2023-03-29T15:36:45.249Z,14.04
2023-03-29T15:39:17.604Z,14.03
2023-03-29T15:41:46.598Z,13.98
2023-03-29T15:44:17.239Z,13.92
2023-03-29T15:46:44.126Z,13.86
2023-03-29T15:49:12.464Z,13.80
2023-03-29T15:51:39.999Z,13.78
2023-03-29T15:54:07.882Z,13.79
2023-03-29T15:56:43.776Z,13.81
2023-03-29T15:59:12.023Z,13.81
2023-03-29T16:01:38.868Z,13.78
2023-03-29T16:04:07.923Z,13.77
2023-03-29T16:06:34.701Z,13.78
2023-03-29T16:09:01.542Z,13.78
2023-03-29T16:11:28.411Z,13.80
2023-03-29T16:13:55.679Z,13.78
2023-03-29T16:16:22.332Z,13.77
2023-03-29T16:18:48.809Z,13.76
2023-03-29T16:21:18.181Z,13.72
2023-03-29T16:23:46.724Z,13.67
2023-03-29T16:26:14.978Z,13.63
2023-03-29T16:28:42.103Z,13.59
2023-03-29T16:31:11.731Z,13.58
2023-03-29T16:33:38.990Z,13.62
2023-03-29T16:36:06.526Z,13.59
2023-03-29T16:38:33.779Z,13.57
2023-03-29T16:41:00.654Z,13.55
2023-03-29T16:43:27.684Z,13.51
2023-03-29T16:45:54.306Z,13.45
2023-03-29T16:48:20.722Z,13.42
2023-03-29T16:50:50.162Z,13.38
2023-03-29T16:53:18.471Z,13.34
2023-03-29T16:55:48.357Z,13.28
2023-03-29T16:58:15.348Z,13.26
2023-03-29T17:00:42.101Z,13.23
2023-03-29T17:03:08.975Z,13.19
2023-03-29T17:05:41.180Z,13.19
2023-03-29T17:08:10.070Z,13.18
2023-03-29T17:10:39.261Z,13.15
2023-03-29T17:13:05.774Z,13.13
2023-03-29T17:15:32.314Z,13.12
2023-03-29T17:17:58.910Z,13.09
2023-03-29T17:20:25.745Z,13.08
2023-03-29T17:22:54.025Z,13.07
2023-03-29T17:25:24.253Z,13.05
2023-03-29T17:27:51.643Z,13.05
2023-03-29T17:30:18.157Z,13.04
2023-03-29T17:32:45.565Z,13.05
2023-03-29T17:35:12.800Z,13.03
2023-03-29T17:37:39.385Z,13.01
2023-03-29T17:40:13.943Z,12.97
2023-03-29T17:42:46.640Z,12.96
2023-03-29T17:45:13.278Z,12.95
2023-03-29T17:47:39.922Z,12.94
2023-03-29T17:50:08.414Z,12.89
2023-03-29T17:52:35.293Z,12.86
2023-03-29T17:55:02.367Z,12.81
2023-03-29T17:57:28.837Z,12.74
2023-03-29T17:59:55.329Z,12.69
2023-03-29T18:02:24.576Z,12.62
2023-03-29T18:04:51.767Z,12.57
2023-03-29T18:07:18.217Z,12.54
2023-03-29T18:09:44.687Z,12.48
2023-03-29T18:12:11.123Z,12.44
2023-03-29T18:14:37.586Z,12.38
2023-03-29T18:17:04.164Z,12.33
2023-03-29T18:19:30.843Z,12.29
2023-03-29T18:21:57.484Z,12.25
2023-03-29T18:24:23.915Z,12.20
2023-03-29T18:26:50.800Z,12.15
2023-03-29T18:29:17.211Z,12.10
2023-03-29T18:31:43.949Z,12.04
2023-03-29T18:34:10.479Z,12.00
2023-03-29T18:36:37.310Z,11.95
2023-03-29T18:39:05.921Z,11.94
2023-03-29T18:41:34.592Z,11.92
2023-03-29T18:44:01.524Z,11.91
2023-03-29T18:46:30.430Z,11.85
2023-03-29T18:48:58.091Z,11.79
2023-03-29T18:51:28.370Z,11.77
2023-03-29T18:53:55.529Z,11.77
2023-03-29T18:56:22.268Z,11.76
2023-03-29T18:58:48.757Z,11.76
2023-03-29T19:01:15.493Z,11.74
2023-03-29T19:03:42.071Z,11.74
2023-03-29T19:06:09.105Z,11.68
2023-03-29T19:08:38.689Z,11.64
2023-03-29T19:11:07.746Z,11.63
2023-03-29T19:13:34.978Z,11.60
2023-03-29T19:16:02.372Z,11.57
2023-03-29T19:18:29.103Z,11.55
2023-03-29T19:20:56.166Z,11.54
2023-03-29T19:23:28.279Z,11.49
2023-03-29T19:25:56.613Z,11.45
2023-03-29T19:28:24.090Z,11.43
2023-03-29T19:30:50.766Z,11.40
2023-03-29T19:33:17.382Z,11.39
2023-03-29T19:35:44.466Z,11.35
2023-03-29T19:38:11.257Z,11.36
2023-03-29T19:40:37.814Z,11.35
2023-03-29T19:43:04.985Z,11.34
2023-03-29T19:45:31.441Z,11.32
2023-03-29T19:48:02.870Z,11.31
2023-03-29T19:50:31.502Z,11.29
2023-03-29T19:52:58.401Z,11.30
2023-03-29T19:55:25.330Z,11.29
2023-03-29T19:57:52.254Z,11.29
2023-03-29T20:00:19.155Z,11.27
2023-03-29T20:02:45.665Z,11.26
2023-03-29T20:05:12.457Z,11.27
2023-03-29T20:07:38.984Z,11.24
2023-03-29T20:10:05.987Z,11.22
2023-03-29T20:12:32.488Z,11.17
2023-03-29T20:14:58.916Z,11.15
2023-03-29T20:17:25.627Z,11.13
2023-03-29T20:19:53.895Z,11.11
2023-03-29T20:22:20.326Z,11.09
2023-03-29T20:24:46.856Z,11.04
2023-03-29T20:27:13.863Z,11.04
2023-03-29T20:29:40.349Z,11.04
2023-03-29T20:32:06.972Z,11.03
2023-03-29T20:34:33.486Z,11.05
2023-03-29T20:37:00.797Z,11.05
2023-03-29T20:39:29.528Z,11.06
2023-03-29T20:41:56.056Z,11.09
2023-03-29T20:44:26.081Z,11.11
2023-03-29T20:47:03.532Z,11.13
2023-03-29T20:49:37.165Z,11.16
2023-03-29T20:52:07.954Z,11.20
2023-03-29T20:54:35.387Z,11.24
2023-03-29T20:57:01.826Z,11.32
2023-03-29T20:59:28.502Z,11.35
2023-03-29T21:01:55.371Z,11.38
2023-03-29T21:04:22.240Z,11.40
2023-03-29T21:06:51.599Z,11.41
2023-03-29T21:09:20.956Z,11.40
2023-03-29T21:11:48.432Z,11.39
2023-03-29T21:14:19.306Z,11.37
2023-03-29T21:16:47.522Z,11.34
2023-03-29T21:19:15.486Z,11.35
2023-03-29T21:21:46.892Z,11.35
2023-03-29T21:24:13.763Z,11.37
2023-03-29T21:26:41.245Z,11.39
2023-03-29T21:29:07.827Z,11.38
2023-03-29T21:31:34.332Z,11.37
2023-03-29T21:34:00.882Z,11.40
2023-03-29T21:36:27.334Z,11.38
2023-03-29T21:38:53.696Z,11.32
2023-03-29T21:41:20.221Z,11.27
2023-03-29T21:43:46.722Z,11.29
2023-03-29T21:46:13.472Z,11.24
2023-03-29T21:48:41.661Z,11.26
2023-03-29T21:51:08.773Z,11.24
2023-03-29T21:53:35.323Z,11.23
2023-03-29T21:56:01.989Z,11.20
2023-03-29T21:58:28.524Z,11.14
2023-03-29T22:00:56.151Z,11.09
2023-03-29T22:03:23.109Z,11.08
2023-03-29T22:06:01.565Z,11.10
2023-03-29T22:08:28.910Z,11.08
2023-03-29T22:10:56.878Z,11.10
2023-03-29T22:13:25.349Z,11.10
2023-03-29T22:15:59.631Z,11.07
2023-03-29T22:18:27.990Z,11.08
2023-03-29T22:20:54.511Z,11.09
2023-03-29T22:23:20.946Z,11.12
2023-03-29T22:25:47.742Z,11.12
2023-03-29T22:28:14.261Z,11.08
2023-03-29T22:30:40.970Z,11.06
2023-03-29T22:33:07.461Z,11.02
2023-03-29T22:35:35.521Z,10.98
2023-03-29T22:38:02.230Z,10.95
2023-03-29T22:40:30.746Z,10.96
2023-03-29T22:42:57.202Z,10.96
2023-03-29T22:45:23.640Z,10.96
2023-03-29T22:47:50.086Z,10.94
2023-03-29T22:50:17.236Z,10.93
2023-03-29T22:52:43.640Z,10.91
2023-03-29T22:55:10.033Z,10.90
2023-03-29T22:57:36.573Z,10.93
2023-03-29T23:00:06.901Z,10.90
2023-03-29T23:02:33.347Z,10.89
2023-03-29T23:04:59.833Z,10.90
2023-03-29T23:07:28.046Z,10.91
2023-03-29T23:09:54.446Z,10.91
2023-03-29T23:12:21.008Z,10.90
2023-03-29T23:14:47.832Z,10.93
2023-03-29T23:17:19.105Z,10.98
2023-03-29T23:19:45.920Z,10.99
2023-03-29T23:22:12.338Z,11.03
2023-03-29T23:24:38.829Z,11.03
2023-03-29T23:27:05.477Z,11.05
2023-03-29T23:29:31.967Z,11.09
2023-03-29T23:31:59.446Z,11.11
2023-03-29T23:34:25.935Z,11.14
2023-03-29T23:36:55.772Z,11.16
2023-03-29T23:39:23.592Z,11.21
2023-03-29T23:41:49.983Z,11.24
2023-03-29T23:44:16.465Z,11.21
2023-03-29T23:46:42.962Z,11.18
2023-03-29T23:49:10.479Z,11.17
2023-03-29T23:51:36.944Z,11.22
2023-03-29T23:54:03.431Z,11.23
2023-03-29T23:56:29.916Z,11.27
2023-03-29T23:58:56.592Z,11.29
